Time;durP1;ratioP1;P1;durP2;ratioP2;P2;SDS_P1;SDS_P2;PMS_P1;PMS_P2;Temp;Humidity;BMP_temperature;BMP_pressure;BME280_temperature;BME280_humidity;BME280_pressure;Samples;Min_cycle;Max_cycle;Signal;HPM_P1;HPM_P2
2023/07/13 00:01:06;;;;;;;;;;;;;;;23.11;28.86;98045.09;5016186;28;979;-77
2023/07/13 00:03:34;;;;;;;;;;;;;;;22.97;28.88;98034.19;5018700;28;1203;-75
2023/07/13 00:06:00;;;;;;;;;;;;;;;23.14;28.70;98027.13;5017368;28;1298;-77
2023/07/13 00:08:26;;;;;;;;;;;;;;;23.08;28.45;98024.06;4946242;29;1900;-77
2023/07/13 00:10:54;;;;;;;;;;;;;;;22.94;29.18;98023.72;4975747;28;1624;-76
2023/07/13 00:13:19;;;;;;;;;;;;;;;23.05;28.93;98018.50;4978296;28;950;-76
2023/07/13 00:15:45;;;;;;;;;;;;;;;23.11;28.80;98022.38;4962447;28;872;-76
2023/07/13 00:18:10;;;;;;;;;;;;;;;23.23;28.57;98024.41;4978162;28;1038;-76
2023/07/13 00:20:36;;;;;;;;;;;;;;;23.07;28.61;98010.34;4961896;28;1001;-76
2023/07/13 00:23:02;;;;;;;;;;;;;;;22.62;29.24;98014.13;4977142;28;1627;-77
2023/07/13 00:25:30;;;;;;;;;;;;;;;22.88;29.12;98003.63;4962027;28;939;-77
2023/07/13 00:27:56;;;;;;;;;;;;;;;23.13;28.70;98008.50;4962164;28;1915;-76
2023/07/13 00:30:21;;;;;;;;;;;;;;;22.66;29.33;98009.16;4978142;28;962;-76
2023/07/13 00:32:47;;;;;;;;;;;;;;;23.07;28.61;98010.34;4946188;28;1074;-76
2023/07/13 00:35:13;;;;;;;;;;;;;;;23.12;28.85;98010.56;4962007;28;963;-76
2023/07/13 00:37:39;;;;;;;;;;;;;;;22.97;28.89;98000.13;4945674;28;1324;-77
2023/07/13 00:40:05;;;;;;;;;;;;;;;22.98;29.01;98002.50;4995111;28;977;-76
2023/07/13 00:42:31;;;;;;;;;;;;;;;23.13;28.83;97997.16;4982048;28;933;-76
2023/07/13 00:45:07;;;;;;;;;;;;;;;23.06;28.80;97995.38;4966284;28;1104;-76
2023/07/13 00:47:33;;;;;;;;;;;;;;;23.15;28.45;97986.13;4982119;28;1985;-76
2023/07/13 00:49:59;;;;;;;;;;;;;;;23.25;28.33;97981.34;4958734;28;1265;-76
2023/07/13 00:52:25;;;;;;;;;;;;;;;23.01;28.76;97975.28;4958092;28;1484;-76
2023/07/13 00:54:51;;;;;;;;;;;;;;;22.75;29.29;97978.09;4961496;28;919;-77
2023/07/13 00:57:17;;;;;;;;;;;;;;;23.09;28.70;97980.25;4945547;28;1050;-76
2023/07/13 00:59:45;;;;;;;;;;;;;;;23.27;28.31;97976.03;4939127;29;985;-76
2023/07/13 01:02:10;;;;;;;;;;;;;;;22.98;28.84;97973.34;4923342;29;914;-76
2023/07/13 01:04:36;;;;;;;;;;;;;;;23.20;28.49;97968.53;4907331;29;1268;-76
2023/07/13 01:07:01;;;;;;;;;;;;;;;23.24;28.74;97963.53;4922526;29;1516;-76
2023/07/13 01:09:27;;;;;;;;;;;;;;;23.20;28.40;97974.22;4907247;29;1903;-77
2023/07/13 01:11:52;;;;;;;;;;;;;;;23.02;28.95;97969.13;4922908;29;946;-77
2023/07/13 01:14:18;;;;;;;;;;;;;;;22.92;29.19;97969.50;4905878;29;1059;-76
2023/07/13 01:16:44;;;;;;;;;;;;;;;23.10;28.76;97958.31;4922988;29;1202;-77
2023/07/13 01:19:35;;;;;;;;;;;;;;;23.15;28.64;97966.25;4922757;29;1155;-77
2023/07/13 01:22:08;;;;;;;;;;;;;;;23.17;28.64;97952.44;4937013;29;1301;-76
2023/07/13 01:24:37;;;;;;;;;;;;;;;22.92;29.15;97952.47;4923635;29;932;-76
2023/07/13 01:27:02;;;;;;;;;;;;;;;22.93;28.99;97948.38;4898153;29;1874;-76
2023/07/13 01:29:29;;;;;;;;;;;;;;;23.21;28.67;97947.44;4894155;29;1985;-76
2023/07/13 01:31:55;;;;;;;;;;;;;;;23.23;28.65;97944.13;4957472;29;897;-76
2023/07/13 01:34:20;;;;;;;;;;;;;;;23.12;28.65;97944.50;4957661;29;988;-76
2023/07/13 01:36:46;;;;;;;;;;;;;;;23.18;28.56;97936.97;4956593;28;1436;-76
2023/07/13 01:39:11;;;;;;;;;;;;;;;23.27;28.24;97937.09;4941727;29;1026;-76
2023/07/13 01:41:37;;;;;;;;;;;;;;;23.05;28.78;97941.88;4941685;29;959;-77
2023/07/13 01:44:03;;;;;;;;;;;;;;;23.25;28.60;97936.72;4976763;28;954;-77
2023/07/13 01:46:29;;;;;;;;;;;;;;;22.92;29.05;97941.13;4976392;28;1165;-76
2023/07/13 01:48:54;;;;;;;;;;;;;;;22.98;28.88;97944.97;4976480;28;1985;-76
2023/07/13 01:51:20;;;;;;;;;;;;;;;23.13;28.85;97940.41;4960117;28;1307;-76
2023/07/13 01:53:46;;;;;;;;;;;;;;;23.02;29.02;97946.44;4960891;28;1347;-75
2023/07/13 01:56:11;;;;;;;;;;;;;;;22.94;28.89;97935.75;4976467;28;938;-76
2023/07/13 01:58:37;;;;;;;;;;;;;;;23.12;28.66;97927.47;4938048;29;1194;-76
2023/07/13 02:01:02;;;;;;;;;;;;;;;22.82;29.10;97937.34;4911288;29;1307;-76
2023/07/13 02:03:28;;;;;;;;;;;;;;;22.99;28.84;97941.66;4951780;29;1197;-77
2023/07/13 02:05:53;;;;;;;;;;;;;;;23.00;29.19;97933.94;4925464;29;969;-76
2023/07/13 02:08:19;;;;;;;;;;;;;;;22.94;29.03;97938.59;4954501;28;1899;-77
2023/07/13 02:10:46;;;;;;;;;;;;;;;23.02;28.85;97946.44;4929100;28;1129;-76
2023/07/13 02:13:11;;;;;;;;;;;;;;;22.95;29.08;97941.00;4960025;28;1295;-76
2023/07/13 02:15:40;;;;;;;;;;;;;;;23.01;29.01;97949.75;4944219;28;1191;-76
2023/07/13 02:18:06;;;;;;;;;;;;;;;22.99;29.03;97935.19;4928467;28;1152;-76
2023/07/13 02:20:31;;;;;;;;;;;;;;;22.91;29.19;97933.84;4960010;28;994;-76
2023/07/13 02:22:57;;;;;;;;;;;;;;;23.01;28.80;97932.72;4962314;28;1577;-76
2023/07/13 02:25:22;;;;;;;;;;;;;;;23.09;28.89;97928.38;4940411;29;1148;-76
2023/07/13 02:27:48;;;;;;;;;;;;;;;23.14;28.84;97941.97;4940731;29;1919;-76
2023/07/13 02:30:16;;;;;;;;;;;;;;;23.20;28.40;97934.47;4975633;28;1174;-76
2023/07/13 02:32:43;;;;;;;;;;;;;;;23.03;28.73;97935.88;4998004;28;935;-76
2023/07/13 02:35:09;;;;;;;;;;;;;;;23.12;28.66;97933.13;4980127;28;1113;-76
2023/07/13 02:37:37;;;;;;;;;;;;;;;23.10;28.72;97941.28;4974146;28;1424;-76
2023/07/13 02:40:08;;;;;;;;;;;;;;;23.03;29.06;97935.88;4964365;28;1152;-76
2023/07/13 02:42:34;;;;;;;;;;;;;;;23.18;28.48;97936.97;4980884;28;961;-77
2023/07/13 02:45:00;;;;;;;;;;;;;;;23.08;28.89;97938.13;4980235;28;878;-77
2023/07/13 02:47:26;;;;;;;;;;;;;;;23.10;28.62;97927.09;4980116;28;1193;-76
2023/07/13 02:49:52;;;;;;;;;;;;;;;23.19;28.43;97938.56;4980161;28;1898;-76
2023/07/13 02:52:18;;;;;;;;;;;;;;;23.16;28.55;97939.50;4967954;28;1492;-76
2023/07/13 02:54:43;;;;;;;;;;;;;;;23.07;28.79;97943.03;4998660;28;1257;-76
2023/07/13 02:57:09;;;;;;;;;;;;;;;23.12;28.77;97945.28;5015900;28;1160;-77
2023/07/13 02:59:36;;;;;;;;;;;;;;;23.13;28.71;97934.72;4982996;28;1186;-76
2023/07/13 03:02:02;;;;;;;;;;;;;;;23.08;28.76;97938.13;4983150;28;1303;-76
2023/07/13 03:04:28;;;;;;;;;;;;;;;23.07;28.79;97933.72;4943253;28;1270;-77
2023/07/13 03:06:57;;;;;;;;;;;;;;;22.94;28.70;97930.09;4958521;28;1479;-76
2023/07/13 03:09:25;;;;;;;;;;;;;;;23.15;28.44;97932.22;4959239;28;1907;-76
2023/07/13 03:11:53;;;;;;;;;;;;;;;22.87;29.17;97929.06;4943482;28;1228;-76
2023/07/13 03:14:24;;;;;;;;;;;;;;;23.02;28.86;97928.63;4959184;28;1287;-76
2023/07/13 03:16:50;;;;;;;;;;;;;;;23.17;28.70;97929.72;4959475;28;1262;-76
2023/07/13 03:19:16;;;;;;;;;;;;;;;23.26;28.61;97926.97;4975243;28;1001;-76
2023/07/13 03:21:46;;;;;;;;;;;;;;;22.97;28.82;97926.34;4958577;28;1577;-77
2023/07/13 03:24:12;;;;;;;;;;;;;;;22.86;29.28;97935.97;4990329;28;1395;-76
2023/07/13 03:26:37;;;;;;;;;;;;;;;22.96;28.84;97933.28;4974742;28;1297;-76
2023/07/13 03:29:04;;;;;;;;;;;;;;;22.98;29.04;97933.59;4974818;28;1922;-76
2023/07/13 03:31:30;;;;;;;;;;;;;;;23.00;29.26;97925.41;4975003;28;949;-77
2023/07/13 03:33:57;;;;;;;;;;;;;;;23.08;28.85;97921.91;4974172;28;1447;-77
2023/07/13 03:36:24;;;;;;;;;;;;;;;23.38;28.55;97934.66;4959087;28;1144;-76
2023/07/13 03:38:52;;;;;;;;;;;;;;;23.17;28.87;97929.72;4962029;28;1477;-76
2023/07/13 03:41:22;;;;;;;;;;;;;;;23.02;29.20;97929.41;4966994;28;1097;-77
2023/07/13 03:43:48;;;;;;;;;;;;;;;23.30;28.43;97933.31;4967344;28;1279;-76
2023/07/13 03:46:16;;;;;;;;;;;;;;;23.18;28.74;97931.31;4983227;28;1186;-76
2023/07/13 03:48:43;;;;;;;;;;;;;;;23.09;28.93;97939.72;4966966;28;1961;-76
2023/07/13 03:51:09;;;;;;;;;;;;;;;23.28;28.82;97929.34;4967290;28;1362;-76
2023/07/13 03:53:38;;;;;;;;;;;;;;;23.09;28.83;97934.03;4983400;28;1039;-76
2023/07/13 03:56:04;;;;;;;;;;;;;;;23.23;28.75;97939.25;4940675;29;1133;-76
2023/07/13 03:58:29;;;;;;;;;;;;;;;23.25;28.67;97939.56;4908702;29;1233;-76
2023/07/13 04:00:59;;;;;;;;;;;;;;;23.06;28.93;97943.50;4924496;29;1366;-76
2023/07/13 04:03:25;;;;;;;;;;;;;;;23.20;28.89;97942.97;4940021;29;950;-75
2023/07/13 04:05:51;;;;;;;;;;;;;;;23.05;29.13;97956.06;4908756;29;1149;-77
2023/07/13 04:08:17;;;;;;;;;;;;;;;23.12;29.26;97944.50;4939694;29;1911;-77
2023/07/13 04:10:43;;;;;;;;;;;;;;;23.19;29.19;97944.25;4940182;29;949;-76
2023/07/13 04:13:08;;;;;;;;;;;;;;;23.23;28.98;97939.25;4939683;29;1082;-76
2023/07/13 04:15:34;;;;;;;;;;;;;;;23.05;29.33;97939.03;4940378;29;1008;-77
2023/07/13 04:17:59;;;;;;;;;;;;;;;23.29;28.96;97937.41;4939623;29;1164;-75
2023/07/13 04:20:25;;;;;;;;;;;;;;;23.16;29.07;97938.66;4907876;29;911;-76
2023/07/13 04:22:51;;;;;;;;;;;;;;;23.19;28.92;97944.25;4939243;29;1205;-76
2023/07/13 04:25:16;;;;;;;;;;;;;;;23.17;29.14;97941.06;4923781;29;725;-76
2023/07/13 04:27:42;;;;;;;;;;;;;;;23.27;29.06;97939.91;4952611;28;1903;-77
2023/07/13 04:30:07;;;;;;;;;;;;;;;23.15;29.09;97949.25;4999802;28;1070;-77
2023/07/13 04:32:33;;;;;;;;;;;;;;;22.97;29.64;97949.06;4982392;28;1137;-77
2023/07/13 04:34:59;;;;;;;;;;;;;;;23.25;29.19;97942.41;4981888;28;880;-77
2023/07/13 04:37:29;;;;;;;;;;;;;;;23.19;29.26;97955.59;4982281;28;869;-77
2023/07/13 04:39:54;;;;;;;;;;;;;;;23.24;29.38;97963.53;4982612;28;860;-77
2023/07/13 04:42:20;;;;;;;;;;;;;;;22.95;29.69;97962.88;5000021;28;905;-77
2023/07/13 04:44:49;;;;;;;;;;;;;;;23.21;29.26;97964.47;4999390;28;876;-77
2023/07/13 04:47:14;;;;;;;;;;;;;;;23.49;28.94;97961.88;4981867;28;1040;-77
2023/07/13 04:49:40;;;;;;;;;;;;;;;23.33;29.06;97960.78;4999287;28;1977;-77
2023/07/13 04:52:07;;;;;;;;;;;;;;;23.06;29.60;97963.34;4999886;28;892;-76
2023/07/13 04:54:33;;;;;;;;;;;;;;;22.86;29.86;97966.41;4982657;28;970;-77
2023/07/13 04:56:58;;;;;;;;;;;;;;;23.16;29.57;97973.56;4981797;28;895;-78
2023/07/13 04:59:24;;;;;;;;;;;;;;;23.14;29.41;97970.38;4982214;28;1005;-77
2023/07/13 05:01:49;;;;;;;;;;;;;;;23.13;29.38;97963.09;4965800;28;1195;-77
2023/07/13 05:04:15;;;;;;;;;;;;;;;23.20;29.59;97968.53;4981696;28;1025;-78
2023/07/13 05:06:40;;;;;;;;;;;;;;;23.13;29.62;97980.13;4982414;28;870;-76
2023/07/13 05:09:07;;;;;;;;;;;;;;;23.08;29.91;97977.88;4999146;28;2010;-74
2023/07/13 05:11:32;;;;;;;;;;;;;;;23.03;29.94;97972.75;4981856;28;950;-75
2023/07/13 05:13:58;;;;;;;;;;;;;;;23.15;29.38;97977.63;4998773;28;863;-75
2023/07/13 05:16:23;;;;;;;;;;;;;;;23.09;29.56;97973.78;4999250;28;902;-75
2023/07/13 05:18:49;;;;;;;;;;;;;;;23.16;29.68;97978.41;4998600;28;877;-74
2023/07/13 05:21:14;;;;;;;;;;;;;;;22.88;30.23;97970.38;4998975;28;915;-77
2023/07/13 05:23:43;;;;;;;;;;;;;;;23.29;29.49;97976.34;4965389;28;1132;-78
2023/07/13 05:26:08;;;;;;;;;;;;;;;23.37;29.45;97981.34;4982006;28;1047;-77
2023/07/13 05:28:34;;;;;;;;;;;;;;;23.26;29.39;97969.56;4981225;28;1910;-77
2023/07/13 05:30:59;;;;;;;;;;;;;;;23.40;29.26;97980.41;4965580;28;1121;-77
2023/07/13 05:33:25;;;;;;;;;;;;;;;23.01;30.22;97983.78;4981414;28;848;-77
2023/07/13 05:35:50;;;;;;;;;;;;;;;23.05;30.08;97985.25;4981564;28;1228;-76
2023/07/13 05:38:18;;;;;;;;;;;;;;;23.20;29.76;97979.88;4998334;28;880;-77
2023/07/13 05:40:44;;;;;;;;;;;;;;;23.22;29.87;97988.75;4998677;28;866;-77
2023/07/13 05:43:09;;;;;;;;;;;;;;;23.40;29.57;97988.13;4981508;28;904;-77
2023/07/13 05:45:35;;;;;;;;;;;;;;;23.24;29.72;97991.13;4981180;28;936;-76
2023/07/13 05:48:00;;;;;;;;;;;;;;;23.48;29.26;97988.72;4964911;28;1902;-77
2023/07/13 05:50:26;;;;;;;;;;;;;;;23.22;29.94;97997.28;4980949;28;1160;-77
2023/07/13 05:52:52;;;;;;;;;;;;;;;23.27;29.70;98002.38;4981383;28;865;-76
2023/07/13 05:55:18;;;;;;;;;;;;;;;23.38;29.61;97997.13;4964906;28;1096;-77
2023/07/13 05:57:43;;;;;;;;;;;;;;;23.19;29.78;97998.16;4981013;28;929;-76
2023/07/13 06:00:09;;;;;;;;;;;;;;;23.37;29.62;97998.38;4997759;28;952;-77
2023/07/13 06:02:37;;;;;;;;;;;;;;;23.49;29.22;98001.66;4997925;28;850;-77
2023/07/13 06:05:03;;;;;;;;;;;;;;;23.51;29.41;97987.78;4965039;28;1110;-76
2023/07/13 06:07:29;;;;;;;;;;;;;;;23.06;30.33;97998.19;4980851;28;1257;-77
2023/07/13 06:09:54;;;;;;;;;;;;;;;23.04;30.29;97994.22;4980565;28;1965;-77
2023/07/13 06:12:19;;;;;;;;;;;;;;;23.42;29.77;97993.38;4980408;28;935;-76
2023/07/13 06:14:45;;;;;;;;;;;;;;;23.35;29.90;98003.72;4998094;28;912;-77
2023/07/13 06:17:10;;;;;;;;;;;;;;;23.09;30.15;98002.16;4980700;28;938;-76
2023/07/13 06:19:36;;;;;;;;;;;;;;;23.01;30.25;98003.66;4980674;28;1213;-77
2023/07/13 06:22:01;;;;;;;;;;;;;;;23.22;30.19;98002.16;4980438;28;1038;-76
2023/07/13 06:24:27;;;;;;;;;;;;;;;23.13;30.29;98002.84;4998410;28;842;-77
2023/07/13 06:26:52;;;;;;;;;;;;;;;23.38;29.68;97997.13;4956961;29;1199;-77
2023/07/13 06:29:18;;;;;;;;;;;;;;;23.00;30.32;98011.38;4957077;29;1907;-76
2023/07/13 06:31:43;;;;;;;;;;;;;;;23.10;30.10;98009.41;4924951;29;1291;-76
2023/07/13 06:34:09;;;;;;;;;;;;;;;23.31;29.76;98003.06;4925263;29;1110;-76
2023/07/13 06:36:36;;;;;;;;;;;;;;;23.23;29.99;98006.56;4940664;29;937;-76
2023/07/13 06:39:02;;;;;;;;;;;;;;;23.31;29.92;98003.06;4940606;29;1113;-77
2023/07/13 06:41:27;;;;;;;;;;;;;;;23.13;30.49;97997.94;4924752;29;1154;-77
2023/07/13 06:43:53;;;;;;;;;;;;;;;23.46;29.68;98003.34;4918086;29;1010;-77
2023/07/13 06:46:20;;;;;;;;;;;;;;;23.48;29.71;98002.91;4903604;29;1110;-77
2023/07/13 06:48:46;;;;;;;;;;;;;;;23.12;30.15;98006.94;4937162;29;1902;-78
2023/07/13 06:51:11;;;;;;;;;;;;;;;23.46;29.85;97999.72;4937515;29;930;-77
2023/07/13 06:53:37;;;;;;;;;;;;;;;23.38;29.98;97997.13;4937105;29;948;-77
2023/07/13 06:56:03;;;;;;;;;;;;;;;23.38;29.91;98002.81;4921435;29;1070;-77
2023/07/13 06:58:28;;;;;;;;;;;;;;;23.47;29.88;97987.91;4951537;29;1052;-77
2023/07/13 07:00:54;;;;;;;;;;;;;;;23.45;30.02;97986.78;4956282;29;996;-77
2023/07/13 07:03:19;;;;;;;;;;;;;;;23.53;29.92;97991.75;4956319;29;945;-77
2023/07/13 07:05:45;;;;;;;;;;;;;;;23.39;30.08;97998.72;4883397;29;934;-77
2023/07/13 07:08:11;;;;;;;;;;;;;;;23.31;30.21;98003.06;4899019;29;1894;-76
2023/07/13 07:10:36;;;;;;;;;;;;;;;23.12;30.83;97996.38;4883318;29;1303;-77
2023/07/13 07:13:03;;;;;;;;;;;;;;;23.28;30.44;97989.75;4885376;29;889;-78
2023/07/13 07:15:28;;;;;;;;;;;;;;;23.18;30.46;97999.44;4945591;29;1010;-76
2023/07/13 07:17:54;;;;;;;;;;;;;;;23.35;30.39;97998.03;4943315;29;852;-77
2023/07/13 07:20:20;;;;;;;;;;;;;;;23.49;29.98;97998.81;4928035;29;1249;-76
2023/07/13 07:22:46;;;;;;;;;;;;;;;23.21;30.61;98001.38;4927638;29;1206;-77
2023/07/13 07:25:11;;;;;;;;;;;;;;;23.16;30.83;97999.09;4959721;29;966;-76
2023/07/13 07:27:37;;;;;;;;;;;;;;;23.33;30.46;97994.06;4939432;29;1201;-77
2023/07/13 07:30:02;;;;;;;;;;;;;;;23.62;29.86;97996.72;4943530;29;1952;-77
2023/07/13 07:32:28;;;;;;;;;;;;;;;23.43;30.05;97987.25;4943972;29;1123;-76
2023/07/13 07:34:54;;;;;;;;;;;;;;;23.45;30.22;97995.28;4959718;29;1103;-77
2023/07/13 07:37:19;;;;;;;;;;;;;;;23.42;30.46;97999.06;4960218;29;1061;-76
2023/07/13 07:39:45;;;;;;;;;;;;;;;23.49;30.44;97995.97;4959640;29;907;-77
2023/07/13 07:42:12;;;;;;;;;;;;;;;23.27;30.63;97996.69;4963385;28;981;-77
2023/07/13 07:44:38;;;;;;;;;;;;;;;23.54;30.21;97992.53;4962572;28;940;-77
2023/07/13 07:47:03;;;;;;;;;;;;;;;23.56;30.12;97995.72;4978513;28;988;-77
2023/07/13 07:49:29;;;;;;;;;;;;;;;23.52;30.16;97983.69;4962180;28;1977;-77
2023/07/13 07:51:54;;;;;;;;;;;;;;;23.47;30.23;97987.13;4978991;28;969;-77
2023/07/13 07:54:20;;;;;;;;;;;;;;;23.61;30.22;97997.97;4962285;28;963;-77
2023/07/13 07:56:45;;;;;;;;;;;;;;;23.41;30.58;97995.41;4978865;28;953;-77
2023/07/13 07:59:11;;;;;;;;;;;;;;;23.45;30.85;97984.72;4978509;28;925;-76
2023/07/13 08:01:36;;;;;;;;;;;;;;;23.70;30.00;97983.88;4962335;28;919;-77
2023/07/13 08:04:02;;;;;;;;;;;;;;;23.47;30.72;97987.13;4959049;29;887;-76
2023/07/13 08:06:28;;;;;;;;;;;;;;;23.50;30.60;97992.66;4943241;29;915;-77
2023/07/13 08:08:53;;;;;;;;;;;;;;;23.60;30.67;97980.13;4926652;29;1980;-77
2023/07/13 08:11:20;;;;;;;;;;;;;;;23.57;30.56;97980.25;4958938;29;930;-77
2023/07/13 08:13:45;;;;;;;;;;;;;;;23.51;30.80;97990.63;4958877;29;971;-77
2023/07/13 08:16:11;;;;;;;;;;;;;;;23.38;31.05;97991.44;4957142;28;1292;-77
2023/07/13 08:18:37;;;;;;;;;;;;;;;23.36;30.98;97991.13;4962476;28;1512;-77
2023/07/13 08:21:03;;;;;;;;;;;;;;;23.42;31.11;97991.34;4978737;28;983;-77
2023/07/13 08:23:29;;;;;;;;;;;;;;;23.39;31.06;97987.34;4961558;28;1156;-77
2023/07/13 08:25:54;;;;;;;;;;;;;;;23.63;30.78;97987.00;4962099;28;1160;-77
2023/07/13 08:28:22;;;;;;;;;;;;;;;23.61;30.58;97993.06;4945843;28;1975;-76
2023/07/13 08:30:51;;;;;;;;;;;;;;;23.46;30.68;97991.19;4961827;28;970;-77
2023/07/13 08:33:17;;;;;;;;;;;;;;;23.44;30.90;97982.34;4961768;28;915;-77
2023/07/13 08:35:45;;;;;;;;;;;;;;;23.67;30.70;97979.13;4945690;28;856;-77
2023/07/13 08:38:10;;;;;;;;;;;;;;;23.96;30.02;97978.09;4945711;28;1888;-76
2023/07/13 08:40:36;;;;;;;;;;;;;;;23.51;30.89;97982.88;4961743;28;949;-77
2023/07/13 08:43:01;;;;;;;;;;;;;;;23.70;30.51;97983.88;4977963;28;959;-77
2023/07/13 08:45:31;;;;;;;;;;;;;;;23.49;30.81;97979.72;4978362;28;949;-77
2023/07/13 08:47:58;;;;;;;;;;;;;;;23.32;31.00;97984.75;4961608;28;1906;-77
2023/07/13 08:50:26;;;;;;;;;;;;;;;23.47;30.78;97978.59;4978126;28;1024;-78
2023/07/13 08:52:51;;;;;;;;;;;;;;;23.65;30.47;97981.63;4961451;28;995;-76
2023/07/13 08:55:21;;;;;;;;;;;;;;;23.56;30.45;97978.66;4961316;28;1338;-77
2023/07/13 08:57:48;;;;;;;;;;;;;;;23.60;30.50;97973.66;4977872;28;908;-77
2023/07/13 09:00:15;;;;;;;;;;;;;;;23.54;30.75;97973.47;4958239;29;1001;-77
2023/07/13 09:02:48;;;;;;;;;;;;;;;23.57;30.61;97974.56;4941898;29;877;-77
2023/07/13 09:05:18;;;;;;;;;;;;;;;23.27;31.02;97968.31;4961215;28;910;-77
2023/07/13 09:07:49;;;;;;;;;;;;;;;23.51;30.90;97970.72;4961265;28;1080;-77
2023/07/13 09:10:20;;;;;;;;;;;;;;;23.42;30.80;97967.81;4961063;28;899;-76
2023/07/13 09:13:15;;;;;;;;;;;;;;;23.53;30.54;97971.09;4945514;28;873;-77
2023/07/13 09:15:43;;;;;;;;;;;;;;;23.42;30.96;97973.50;4885606;29;973;-77
2023/07/13 09:18:14;;;;;;;;;;;;;;;23.58;30.72;97982.66;4885215;29;896;-76
2023/07/13 09:20:44;;;;;;;;;;;;;;;23.51;30.79;97973.56;4885276;29;904;-77
2023/07/13 09:23:12;;;;;;;;;;;;;;;23.49;30.68;97973.25;4884473;29;1203;-76
2023/07/13 09:25:38;;;;;;;;;;;;;;;23.32;30.71;97976.25;4885482;29;975;-76
2023/07/13 09:28:12;;;;;;;;;;;;;;;23.55;30.51;97982.78;4884709;29;1907;-77
2023/07/13 09:30:53;;;;;;;;;;;;;;;23.31;30.95;97977.50;4905400;29;1082;-77
2023/07/13 09:33:20;;;;;;;;;;;;;;;23.19;30.93;97977.50;4919333;29;1048;-77
2023/07/13 09:35:45;;;;;;;;;;;;;;;23.44;30.64;97977.47;4918573;29;910;-76
2023/07/13 09:38:12;;;;;;;;;;;;;;;23.36;30.68;97976.94;4919302;29;1061;-77
2023/07/13 09:40:44;;;;;;;;;;;;;;;23.48;30.45;97971.66;4919627;29;878;-77
2023/07/13 09:43:10;;;;;;;;;;;;;;;23.24;31.25;97963.53;4919602;29;1132;-77
2023/07/13 09:45:36;;;;;;;;;;;;;;;23.03;31.29;97958.56;4919298;29;928;-77
2023/07/13 09:48:11;;;;;;;;;;;;;;;23.55;30.60;97962.88;4919091;29;1915;-77
2023/07/13 09:50:36;;;;;;;;;;;;;;;23.46;30.59;97962.78;4919346;29;952;-77
2023/07/13 09:53:02;;;;;;;;;;;;;;;23.40;30.90;97966.22;4972649;28;1126;-77
2023/07/13 09:55:40;;;;;;;;;;;;;;;23.47;30.63;97958.72;4997992;28;1066;-77
2023/07/13 09:58:09;;;;;;;;;;;;;;;23.59;30.33;97960.72;4981142;28;1097;-77
2023/07/13 10:00:35;;;;;;;;;;;;;;;23.33;30.81;97949.44;4998107;28;855;-78
2023/07/13 10:03:03;;;;;;;;;;;;;;;23.49;30.49;97956.22;4998300;28;896;-76
2023/07/13 10:05:32;;;;;;;;;;;;;;;23.45;30.48;97949.84;4965125;28;942;-77
2023/07/13 10:07:58;;;;;;;;;;;;;;;23.48;30.63;97952.56;4980664;28;1906;-77
2023/07/13 10:10:23;;;;;;;;;;;;;;;23.45;30.50;97949.84;4981246;28;790;-77
2023/07/13 10:12:49;;;;;;;;;;;;;;;23.48;30.69;97937.59;4947703;28;1196;-78
2023/07/13 10:15:16;;;;;;;;;;;;;;;23.31;31.02;97934.91;4980544;28;906;-76
2023/07/13 10:17:41;;;;;;;;;;;;;;;23.43;30.84;97938.19;4980485;28;1916;-77
2023/07/13 10:20:12;;;;;;;;;;;;;;;23.52;30.48;97935.41;4979874;28;876;-77
2023/07/13 10:22:51;;;;;;;;;;;;;;;23.26;30.75;97932.66;4981375;28;1374;-77
2023/07/13 10:25:24;;;;;;;;;;;;;;;23.42;30.80;97933.75;4964239;28;978;-77
2023/07/13 10:27:51;;;;;;;;;;;;;;;23.61;30.09;97929.81;4963961;28;1972;-78
2023/07/13 10:30:29;;;;;;;;;;;;;;;23.47;30.49;97930.31;4980382;28;831;-76
2023/07/13 10:32:57;;;;;;;;;;;;;;;23.33;30.74;97938.09;4964031;28;953;-77
2023/07/13 10:35:23;;;;;;;;;;;;;;;23.23;31.04;97927.88;4979774;28;872;-77
2023/07/13 10:37:49;;;;;;;;;;;;;;;23.28;30.65;97924.47;4979851;28;1270;-77
2023/07/13 10:40:16;;;;;;;;;;;;;;;23.21;30.86;97927.56;4980676;28;891;-77
2023/07/13 10:42:43;;;;;;;;;;;;;;;23.26;30.89;97926.97;4937379;29;928;-76
2023/07/13 10:45:15;;;;;;;;;;;;;;;23.12;31.21;97924.63;4921453;29;1300;-75
2023/07/13 10:47:41;;;;;;;;;;;;;;;23.29;30.56;97920.38;4936903;29;972;-76
2023/07/13 10:50:08;;;;;;;;;;;;;;;23.55;30.31;97925.97;4936937;29;1911;-77
2023/07/13 10:52:36;;;;;;;;;;;;;;;23.19;30.93;97915.06;4937606;29;928;-76
2023/07/13 10:55:03;;;;;;;;;;;;;;;23.42;30.59;97923.19;4937177;29;848;-76
2023/07/13 10:57:28;;;;;;;;;;;;;;;23.51;30.08;97919.63;4921128;29;1126;-76
2023/07/13 11:00:04;;;;;;;;;;;;;;;23.69;30.14;97925.50;4937550;29;927;-77
2023/07/13 11:02:30;;;;;;;;;;;;;;;23.66;30.09;97920.72;4937213;29;955;-76
2023/07/13 11:04:57;;;;;;;;;;;;;;;23.04;31.05;97920.44;4937195;29;986;-77
2023/07/13 11:07:23;;;;;;;;;;;;;;;23.51;30.34;97925.28;4899368;29;1195;-76
2023/07/13 11:09:53;;;;;;;;;;;;;;;23.30;30.76;97927.63;4883851;29;1972;-77
2023/07/13 11:12:21;;;;;;;;;;;;;;;23.26;30.53;97926.97;4883774;29;1086;-76
2023/07/13 11:14:55;;;;;;;;;;;;;;;23.38;30.42;97928.97;4953600;29;966;-77
2023/07/13 11:17:23;;;;;;;;;;;;;;;23.53;30.16;97934.97;4956017;28;1018;-77
2023/07/13 11:19:50;;;;;;;;;;;;;;;23.46;30.35;97923.03;4956108;28;915;-77
2023/07/13 11:22:16;;;;;;;;;;;;;;;23.32;30.69;97930.81;4940009;29;1248;-77
2023/07/13 11:24:48;;;;;;;;;;;;;;;23.64;30.02;97923.25;4924333;28;1004;-77
2023/07/13 11:27:31;;;;;;;;;;;;;;;23.62;30.17;97920.03;4940284;29;920;-76
2023/07/13 11:30:07;;;;;;;;;;;;;;;23.31;30.53;97929.25;4956008;28;1902;-75
2023/07/13 11:32:32;;;;;;;;;;;;;;;23.56;30.15;97921.88;4956025;28;929;-77
2023/07/13 11:34:58;;;;;;;;;;;;;;;23.34;30.46;97931.16;4924423;29;1241;-77
2023/07/13 11:37:23;;;;;;;;;;;;;;;23.25;30.69;97928.22;4928897;28;1073;-76
2023/07/13 11:39:50;;;;;;;;;;;;;;;23.65;30.23;97925.59;4979567;28;853;-77
2023/07/13 11:42:16;;;;;;;;;;;;;;;23.42;30.57;97925.25;4979548;28;848;-76
2023/07/13 11:44:43;;;;;;;;;;;;;;;23.36;30.34;97928.66;4996692;28;989;-77
2023/07/13 11:47:14;;;;;;;;;;;;;;;23.48;30.40;97932.69;4996887;28;887;-77
2023/07/13 11:49:44;;;;;;;;;;;;;;;23.32;30.35;97918.66;4979319;28;1952;-78
2023/07/13 11:52:17;;;;;;;;;;;;;;;23.27;30.73;97913.56;4979506;28;907;-77
2023/07/13 11:54:51;;;;;;;;;;;;;;;23.50;30.11;97923.72;4979711;28;916;-77
2023/07/13 11:57:29;;;;;;;;;;;;;;;23.55;30.37;97921.06;4964084;28;957;-77
2023/07/13 11:59:55;;;;;;;;;;;;;;;23.56;30.00;97930.38;4999846;28;975;-77
2023/07/13 12:02:31;;;;;;;;;;;;;;;23.51;30.10;97916.78;4982975;28;944;-77
2023/07/13 12:04:57;;;;;;;;;;;;;;;23.37;30.49;97909.56;5000264;28;971;-77
2023/07/13 12:07:22;;;;;;;;;;;;;;;23.50;30.11;97912.34;4982836;28;852;-76
2023/07/13 12:09:50;;;;;;;;;;;;;;;23.45;30.15;97910.09;4943232;29;1906;-77
2023/07/13 12:12:19;;;;;;;;;;;;;;;23.34;30.39;97911.28;4943617;29;942;-77
2023/07/13 12:14:44;;;;;;;;;;;;;;;23.42;30.25;97917.50;4943154;29;1015;-77
2023/07/13 12:17:15;;;;;;;;;;;;;;;23.59;30.01;97915.28;4959274;29;1327;-77
2023/07/13 12:19:41;;;;;;;;;;;;;;;23.43;30.43;97918.28;4943000;29;927;-78
2023/07/13 12:22:08;;;;;;;;;;;;;;;23.21;30.58;97913.38;4943352;29;1288;-76
2023/07/13 12:24:33;;;;;;;;;;;;;;;23.16;30.71;97910.28;4943180;29;942;-77
2023/07/13 12:27:03;;;;;;;;;;;;;;;23.47;30.10;97907.59;4943264;29;1262;-76
2023/07/13 12:29:29;;;;;;;;;;;;;;;23.50;29.97;97907.47;4943647;29;1907;-77
2023/07/13 12:31:55;;;;;;;;;;;;;;;23.37;30.18;97910.38;4958929;29;1027;-76
2023/07/13 12:34:24;;;;;;;;;;;;;;;23.44;30.25;97897.16;4958964;29;1015;-78
2023/07/13 12:36:52;;;;;;;;;;;;;;;23.51;30.13;97891.22;4958989;29;857;-77
2023/07/13 12:39:18;;;;;;;;;;;;;;;23.24;30.58;97894.63;4958731;29;889;-76
2023/07/13 12:41:45;;;;;;;;;;;;;;;23.14;30.58;97885.22;4995219;28;922;-77
2023/07/13 12:44:18;;;;;;;;;;;;;;;23.28;30.49;97884.72;4966371;28;1271;-77
2023/07/13 12:46:53;;;;;;;;;;;;;;;23.49;30.07;97885.22;4982269;28;920;-77
2023/07/13 12:49:21;;;;;;;;;;;;;;;23.46;30.02;97889.75;4982117;28;1977;-76
2023/07/13 12:51:49;;;;;;;;;;;;;;;23.53;29.76;97871.69;4982116;28;953;-76
2023/07/13 12:54:16;;;;;;;;;;;;;;;23.50;30.14;97879.06;4982334;28;923;-77
2023/07/13 12:56:41;;;;;;;;;;;;;;;23.42;29.83;97872.06;4939532;29;907;-77
2023/07/13 12:59:10;;;;;;;;;;;;;;;23.43;29.69;97870.81;4923316;29;908;-76
2023/07/13 13:01:37;;;;;;;;;;;;;;;23.49;29.97;97866.13;4923373;29;905;-77